createdAt,value
2023-02-13T00:02:42.287Z,8.75
2023-02-13T00:05:44.226Z,10.82
2023-02-13T00:08:45.669Z,9.45
2023-02-13T00:11:47.112Z,9.13
2023-02-13T00:14:48.636Z,8.52
2023-02-13T00:17:50.077Z,9.77
2023-02-13T00:21:05.846Z,8.40
2023-02-13T00:24:07.459Z,10.65
2023-02-13T00:27:09.044Z,7.63
2023-02-13T00:30:11.212Z,8.38
2023-02-13T00:33:12.726Z,8.95
2023-02-13T00:36:17.121Z,8.52
2023-02-13T00:39:19.690Z,10.77
2023-02-13T00:42:26.412Z,7.87
2023-02-13T00:45:28.503Z,8.88
2023-02-13T00:48:31.963Z,8.18
2023-02-13T00:51:33.560Z,10.93
2023-02-13T00:54:35.019Z,9.10
2023-02-13T00:57:36.536Z,9.18
2023-02-13T01:00:38.770Z,8.90
2023-02-13T01:03:41.009Z,9.02
2023-02-13T01:06:42.624Z,8.90
2023-02-13T01:09:44.556Z,8.57
2023-02-13T01:12:46.538Z,7.65
2023-02-13T01:15:49.048Z,8.98
2023-02-13T01:18:50.715Z,8.43
2023-02-13T01:21:52.158Z,8.73
2023-02-13T01:24:53.692Z,7.30
2023-02-13T01:27:55.222Z,7.72
2023-02-13T01:30:58.394Z,9.40
2023-02-13T01:34:00.326Z,8.00
2023-02-13T01:37:01.846Z,6.88
2023-02-13T01:40:04.116Z,7.13
2023-02-13T01:43:09.756Z,7.63
2023-02-13T01:46:12.764Z,6.88
2023-02-13T01:49:23.216Z,7.40
2023-02-13T01:52:25.896Z,8.82
2023-02-13T01:55:29.524Z,7.07
2023-02-13T01:58:34.839Z,8.57
2023-02-13T02:01:37.242Z,7.82
2023-02-13T02:04:42.182Z,8.32
2023-02-13T02:07:50.407Z,10.93
2023-02-13T02:11:02.973Z,9.05
2023-02-13T02:14:04.585Z,7.85
2023-02-13T02:17:08.858Z,8.32
2023-02-13T02:20:31.669Z,7.63
2023-02-13T02:23:45.938Z,7.75
2023-02-13T02:27:06.206Z,7.03
2023-02-13T02:30:38.798Z,7.40
2023-02-13T02:33:55.181Z,8.23
2023-02-13T02:37:11.993Z,7.30
2023-02-13T02:40:30.221Z,8.43
2023-02-13T02:43:55.322Z,8.10
2023-02-13T02:47:30.857Z,8.18
2023-02-13T02:51:01.827Z,6.40
2023-02-13T02:54:32.684Z,6.57
2023-02-13T02:58:16.927Z,8.65
2023-02-13T03:01:46.126Z,8.48
2023-02-13T03:05:11.961Z,6.95
2023-02-13T03:08:14.611Z,7.65
2023-02-13T03:11:35.090Z,8.57
2023-02-13T03:14:37.662Z,8.30
2023-02-13T03:17:57.917Z,9.63
2023-02-13T03:21:36.534Z,9.80
2023-02-13T03:25:07.913Z,8.02
2023-02-13T03:28:38.758Z,10.52
2023-02-13T03:32:01.657Z,10.10
2023-02-13T03:35:56.161Z,12.18
2023-02-13T03:39:03.122Z,12.00
2023-02-13T03:42:10.979Z,10.00
2023-02-13T03:45:37.365Z,8.70
2023-02-13T03:49:04.518Z,11.63
2023-02-13T03:52:16.348Z,9.02
2023-02-13T03:55:38.508Z,11.15
2023-02-13T03:59:04.084Z,9.77
2023-02-13T04:02:15.868Z,11.02
2023-02-13T04:05:22.298Z,10.32
2023-02-13T04:08:23.896Z,8.82
2023-02-13T04:11:35.991Z,12.02
2023-02-13T04:14:48.110Z,9.23
2023-02-13T04:17:55.657Z,11.70
2023-02-13T04:20:57.375Z,9.15
2023-02-13T04:23:59.032Z,9.85
2023-02-13T04:27:00.705Z,12.52
2023-02-13T04:30:02.240Z,10.73
2023-02-13T04:33:03.971Z,11.50
2023-02-13T04:36:05.744Z,12.25
2023-02-13T04:39:07.278Z,13.15
2023-02-13T04:42:08.784Z,11.35
2023-02-13T04:45:10.364Z,12.65
2023-02-13T04:48:11.822Z,10.80
2023-02-13T04:51:13.288Z,12.55
2023-02-13T04:54:14.902Z,11.48
2023-02-13T04:57:16.408Z,12.80
2023-02-13T05:00:18.438Z,15.55
2023-02-13T05:03:19.913Z,17.23
2023-02-13T05:06:21.357Z,15.48
2023-02-13T05:09:22.961Z,14.80
2023-02-13T05:12:24.561Z,10.85
2023-02-13T05:15:26.803Z,13.77
2023-02-13T05:18:28.406Z,14.30
2023-02-13T05:21:48.329Z,11.70
2023-02-13T05:24:49.850Z,11.55
2023-02-13T05:27:51.340Z,11.60
2023-02-13T05:30:53.116Z,13.23
2023-02-13T05:33:54.747Z,12.57
2023-02-13T05:36:56.586Z,13.27
2023-02-13T05:39:58.109Z,15.27
2023-02-13T05:42:59.553Z,16.15
2023-02-13T05:46:05.973Z,15.63
2023-02-13T05:49:09.178Z,15.88
2023-02-13T05:52:10.784Z,18.07
2023-02-13T05:55:12.386Z,13.68
2023-02-13T05:58:14.007Z,14.90
2023-02-13T06:01:15.589Z,15.50
2023-02-13T06:04:17.165Z,14.02
2023-02-13T06:07:18.732Z,12.95
2023-02-13T06:10:20.264Z,15.13
2023-02-13T06:13:21.768Z,14.75
2023-02-13T06:16:23.321Z,17.00
2023-02-13T06:19:24.859Z,14.85
2023-02-13T06:22:26.418Z,12.85
2023-02-13T06:25:28.504Z,15.02
2023-02-13T06:28:30.119Z,14.00
2023-02-13T06:31:31.710Z,14.20
2023-02-13T06:34:33.238Z,18.10
2023-02-13T06:37:34.931Z,15.60
2023-02-13T06:40:36.469Z,13.30
2023-02-13T06:43:39.942Z,14.18
2023-02-13T06:46:43.522Z,14.50
2023-02-13T06:49:45.152Z,16.05
2023-02-13T06:52:51.192Z,16.00
2023-02-13T06:55:53.544Z,18.83
2023-02-13T06:58:55.049Z,16.05
2023-02-13T07:01:56.508Z,15.57
2023-02-13T07:04:58.052Z,17.17
2023-02-13T07:07:59.560Z,14.20
2023-02-13T07:11:01.096Z,21.23
2023-02-13T07:14:02.683Z,17.10
2023-02-13T07:17:04.273Z,16.05
2023-02-13T07:20:06.752Z,14.90
2023-02-13T07:23:08.275Z,15.45
2023-02-13T07:26:11.144Z,14.27
2023-02-13T07:29:12.692Z,18.83
2023-02-13T07:32:14.631Z,42.35
2023-02-13T07:35:16.191Z,71.80
2023-02-13T07:38:18.816Z,56.72
2023-02-13T07:41:20.783Z,53.05
2023-02-13T07:44:22.291Z,69.22
2023-02-13T07:47:23.768Z,31.50
2023-02-13T07:50:25.629Z,22.60
2023-02-13T07:53:27.149Z,21.25
2023-02-13T07:56:28.724Z,20.17
2023-02-13T07:59:30.232Z,16.73
2023-02-13T08:02:31.766Z,19.95
2023-02-13T08:05:33.848Z,21.17
2023-02-13T08:08:35.902Z,21.70
2023-02-13T08:11:55.449Z,21.98
2023-02-13T08:14:56.946Z,20.20
2023-02-13T08:17:58.467Z,21.67
2023-02-13T08:21:02.967Z,28.88
2023-02-13T08:24:05.233Z,34.03
2023-02-13T08:27:06.692Z,36.28
2023-02-13T08:30:10.203Z,48.65
2023-02-13T08:33:11.728Z,48.35
2023-02-13T08:36:13.242Z,40.53
2023-02-13T08:39:14.766Z,37.85
2023-02-13T08:42:16.538Z,39.70
2023-02-13T08:45:18.159Z,40.42
2023-02-13T08:48:19.601Z,24.40
2023-02-13T08:51:21.288Z,21.45
2023-02-13T08:54:22.856Z,25.73
2023-02-13T08:57:24.414Z,19.83
2023-02-13T09:00:25.834Z,17.63
2023-02-13T09:03:27.363Z,16.77
2023-02-13T09:06:28.995Z,17.15
2023-02-13T09:09:30.557Z,16.45
2023-02-13T09:12:32.104Z,15.73
2023-02-13T09:15:33.934Z,13.77
2023-02-13T09:18:35.597Z,15.05
2023-02-13T09:21:37.103Z,15.57
2023-02-13T09:24:38.680Z,14.77
2023-02-13T09:27:40.271Z,16.58
2023-02-13T09:30:41.850Z,22.65
2023-02-13T09:33:47.941Z,16.17
2023-02-13T09:36:55.480Z,16.45
2023-02-13T09:39:57.171Z,18.58
2023-02-13T09:43:22.839Z,18.48
2023-02-13T09:46:31.094Z,18.38
2023-02-13T09:49:36.994Z,16.60
2023-02-13T09:52:39.582Z,16.65
2023-02-13T09:55:53.689Z,17.98
2023-02-13T09:59:10.141Z,14.90
2023-02-13T10:02:33.499Z,15.23
2023-02-13T10:06:04.850Z,15.82
2023-02-13T10:09:21.437Z,16.23
2023-02-13T10:12:37.834Z,15.52
2023-02-13T10:15:48.658Z,14.52
2023-02-13T10:19:31.853Z,16.58
2023-02-13T10:22:45.698Z,16.83
2023-02-13T10:25:58.061Z,21.48
2023-02-13T10:29:25.659Z,17.50
2023-02-13T10:32:45.381Z,17.65
2023-02-13T10:36:01.135Z,15.52
2023-02-13T10:39:13.425Z,14.98
2023-02-13T10:42:28.385Z,17.30
2023-02-13T10:45:49.649Z,21.30
2023-02-13T10:49:17.409Z,16.73
2023-02-13T10:52:46.780Z,17.85
2023-02-13T10:56:03.459Z,20.75
2023-02-13T10:59:40.093Z,18.65
2023-02-13T11:02:41.596Z,19.80
2023-02-13T11:05:43.339Z,22.92
2023-02-13T11:08:47.600Z,24.15
2023-02-13T11:11:49.349Z,23.08
2023-02-13T11:15:08.066Z,21.38
2023-02-13T11:18:19.556Z,28.00
2023-02-13T11:21:34.314Z,27.50
2023-02-13T11:24:36.968Z,26.20
2023-02-13T11:27:39.840Z,27.45
2023-02-13T11:30:41.316Z,27.80
2023-02-13T11:33:42.802Z,33.67
2023-02-13T11:36:44.249Z,30.83
2023-02-13T11:39:51.221Z,36.30
2023-02-13T11:42:53.001Z,36.33
2023-02-13T11:46:17.576Z,38.13
2023-02-13T11:49:23.090Z,36.92
2023-02-13T11:52:50.765Z,34.97
2023-02-13T11:56:06.684Z,35.80
2023-02-13T11:59:13.842Z,41.55
2023-02-13T12:02:24.141Z,33.13
2023-02-13T12:05:28.282Z,33.35
2023-02-13T12:08:33.034Z,36.17
2023-02-13T12:11:42.327Z,35.17
2023-02-13T12:14:46.250Z,38.80
2023-02-13T12:17:57.012Z,36.90
2023-02-13T12:21:09.841Z,40.83
2023-02-13T12:24:30.178Z,32.05
2023-02-13T12:27:42.925Z,34.78
2023-02-13T12:30:53.681Z,34.00
2023-02-13T12:34:07.134Z,34.65
2023-02-13T12:37:11.849Z,35.05
2023-02-13T12:40:24.687Z,35.80
2023-02-13T12:43:54.974Z,35.03
2023-02-13T12:47:08.340Z,31.65
2023-02-13T12:50:25.027Z,36.38
2023-02-13T12:53:42.665Z,35.38
2023-02-13T12:56:56.274Z,33.53
2023-02-13T13:00:09.664Z,34.37
2023-02-13T13:03:35.560Z,32.47
2023-02-13T13:06:54.218Z,35.05
2023-02-13T13:09:58.609Z,32.60
2023-02-13T13:13:16.629Z,36.10
2023-02-13T13:16:20.869Z,38.33
2023-02-13T13:22:44.168Z,33.63
2023-02-13T13:26:05.235Z,34.25
2023-02-13T13:29:27.403Z,32.30
2023-02-13T13:32:30.899Z,34.58
2023-02-13T13:35:34.278Z,34.60
2023-02-13T13:39:04.540Z,37.03
2023-02-13T13:42:19.481Z,32.58
2023-02-13T13:45:37.725Z,38.22
2023-02-13T13:48:57.346Z,34.03
2023-02-13T13:52:24.800Z,32.67
2023-02-13T13:55:46.541Z,32.58
2023-02-13T13:58:50.605Z,33.00
2023-02-13T14:02:17.692Z,36.15
2023-02-13T14:05:25.185Z,36.28
2023-02-13T14:08:41.823Z,34.67
2023-02-13T14:11:47.177Z,33.10
2023-02-13T14:14:49.197Z,34.03
2023-02-13T14:17:53.113Z,31.13
2023-02-13T14:21:01.149Z,34.38
2023-02-13T14:24:11.841Z,33.70
2023-02-13T14:27:25.376Z,32.80
2023-02-13T14:30:31.184Z,36.23
2023-02-13T14:33:33.502Z,35.40
2023-02-13T14:36:40.860Z,38.22
2023-02-13T14:39:43.430Z,33.38
2023-02-13T14:42:50.114Z,35.72
2023-02-13T14:46:06.742Z,33.15
2023-02-13T14:49:17.816Z,37.03
2023-02-13T14:52:26.398Z,38.33
2023-02-13T14:55:45.754Z,36.13
2023-02-13T14:59:06.966Z,39.13
2023-02-13T15:02:23.697Z,40.63
2023-02-13T15:05:32.894Z,40.80
2023-02-13T15:08:46.082Z,38.10
2023-02-13T15:11:47.773Z,37.65
2023-02-13T15:14:49.291Z,36.15
2023-02-13T15:17:59.284Z,38.15
2023-02-13T15:21:01.586Z,39.83
2023-02-13T15:24:03.780Z,39.53
2023-02-13T15:27:07.303Z,40.50
2023-02-13T15:30:23.943Z,41.00
2023-02-13T15:33:47.453Z,37.65
2023-02-13T15:36:49.256Z,36.65
2023-02-13T15:39:50.740Z,34.85
2023-02-13T15:42:53.140Z,38.70
2023-02-13T15:45:57.458Z,38.72
2023-02-13T15:49:13.859Z,36.35
2023-02-13T15:52:18.910Z,38.90
2023-02-13T15:55:30.115Z,41.17
2023-02-13T15:58:34.186Z,42.80
2023-02-13T16:01:36.017Z,35.63
2023-02-13T16:04:37.875Z,44.30
2023-02-13T16:07:51.295Z,42.47
2023-02-13T16:11:27.808Z,41.45
2023-02-13T16:14:31.883Z,43.00
2023-02-13T16:17:36.625Z,40.90
2023-02-13T16:20:38.926Z,42.13
2023-02-13T16:23:40.663Z,49.60
2023-02-13T16:26:44.133Z,42.80
2023-02-13T16:29:54.682Z,42.95
2023-02-13T16:33:29.724Z,45.95
2023-02-13T16:36:31.241Z,45.47
2023-02-13T16:39:33.235Z,44.42
2023-02-13T16:42:34.762Z,42.45
2023-02-13T16:45:36.469Z,45.38
2023-02-13T16:48:38.435Z,37.20
2023-02-13T16:51:44.612Z,39.63
2023-02-13T16:54:50.998Z,34.88
2023-02-13T16:58:02.056Z,38.10
2023-02-13T17:01:05.305Z,38.35
2023-02-13T17:04:22.384Z,36.77
2023-02-13T17:07:29.891Z,39.22
2023-02-13T17:10:34.151Z,38.03
2023-02-13T17:13:35.848Z,35.72
2023-02-13T17:16:37.759Z,39.72
2023-02-13T17:19:39.379Z,45.90
2023-02-13T17:22:43.788Z,39.75
2023-02-13T17:25:47.417Z,38.30
2023-02-13T17:28:49.082Z,41.17
2023-02-13T17:31:54.328Z,39.53
2023-02-13T17:34:56.055Z,42.28
2023-02-13T17:37:57.710Z,40.83
2023-02-13T17:41:00.597Z,43.63
2023-02-13T17:44:02.296Z,40.17
2023-02-13T17:47:03.991Z,40.15
2023-02-13T17:50:10.519Z,40.63
2023-02-13T17:53:27.602Z,38.42
2023-02-13T17:56:29.190Z,36.75
2023-02-13T17:59:30.627Z,40.17
2023-02-13T18:02:33.598Z,41.70
2023-02-13T18:05:35.114Z,42.85
2023-02-13T18:08:36.595Z,41.70
2023-02-13T18:11:38.070Z,39.00
2023-02-13T18:14:39.615Z,36.67
2023-02-13T18:17:41.986Z,39.38
2023-02-13T18:20:44.253Z,37.88
2023-02-13T18:23:45.757Z,38.13
2023-02-13T18:26:47.479Z,44.78
2023-02-13T18:29:49.064Z,45.10
2023-02-13T18:32:53.053Z,52.20
2023-02-13T18:36:01.422Z,38.90
2023-02-13T18:39:03.768Z,43.42
2023-02-13T18:42:05.882Z,41.30
2023-02-13T18:45:07.746Z,33.85
2023-02-13T18:48:09.551Z,35.85
2023-02-13T18:51:11.164Z,34.35
2023-02-13T18:54:13.145Z,37.17
2023-02-13T18:57:15.095Z,34.85
2023-02-13T19:00:17.230Z,33.17
2023-02-13T19:03:18.794Z,31.95
2023-02-13T19:06:23.438Z,30.88
2023-02-13T19:09:24.995Z,34.15
2023-02-13T19:12:26.577Z,32.60
2023-02-13T19:15:28.019Z,34.92
2023-02-13T19:18:29.541Z,34.00
2023-02-13T19:21:32.738Z,34.03
2023-02-13T19:24:34.204Z,30.77
2023-02-13T19:27:37.727Z,41.97
2023-02-13T19:30:39.414Z,34.83
2023-02-13T19:33:41.243Z,35.10
2023-02-13T19:36:42.778Z,36.22
2023-02-13T19:39:44.281Z,35.05
2023-02-13T19:42:45.736Z,30.52
2023-02-13T19:45:47.404Z,36.17
2023-02-13T19:48:49.322Z,31.25
2023-02-13T19:51:50.875Z,32.63
2023-02-13T19:54:54.101Z,32.53
2023-02-13T19:57:55.570Z,39.17
2023-02-13T20:01:08.983Z,34.97
2023-02-13T20:04:11.423Z,37.33
2023-02-13T20:07:13.863Z,34.45
2023-02-13T20:10:15.401Z,33.22
2023-02-13T20:13:16.848Z,32.45
2023-02-13T20:16:18.610Z,29.42
2023-02-13T20:19:20.096Z,38.83
2023-02-13T20:22:21.726Z,32.55
2023-02-13T20:25:23.258Z,33.97
2023-02-13T20:28:24.789Z,28.20
2023-02-13T20:31:27.039Z,34.05
2023-02-13T20:34:31.667Z,31.77
2023-02-13T20:37:39.041Z,30.25
2023-02-13T20:40:40.567Z,32.17
2023-02-13T20:43:42.562Z,36.42
2023-02-13T20:46:44.168Z,29.60
2023-02-13T20:49:45.763Z,28.55
2023-02-13T20:52:47.367Z,28.05
2023-02-13T20:55:49.010Z,26.63
2023-02-13T20:58:53.254Z,24.50
2023-02-13T21:01:54.819Z,29.95
2023-02-13T21:04:56.594Z,29.67
2023-02-13T21:07:58.200Z,25.05
2023-02-13T21:11:04.456Z,32.05
2023-02-13T21:14:06.628Z,66.68
2023-02-13T21:17:09.633Z,44.35
2023-02-13T21:20:11.469Z,28.77
2023-02-13T21:23:12.977Z,26.20
2023-02-13T21:26:16.923Z,24.75
2023-02-13T21:29:19.315Z,23.30
2023-02-13T21:32:20.978Z,21.45
2023-02-13T21:35:22.465Z,23.30
2023-02-13T21:38:24.356Z,22.50
2023-02-13T21:41:26.215Z,22.35
2023-02-13T21:44:27.753Z,23.92
2023-02-13T21:47:29.301Z,19.75
2023-02-13T21:50:30.830Z,25.55
2023-02-13T21:53:32.399Z,25.30
2023-02-13T21:56:36.764Z,24.25
2023-02-13T21:59:38.291Z,21.67
2023-02-13T22:02:39.818Z,22.98
2023-02-13T22:05:47.899Z,24.83
2023-02-13T22:08:49.553Z,23.17
2023-02-13T22:11:52.706Z,23.48
2023-02-13T22:14:54.445Z,22.20
2023-02-13T22:17:56.028Z,19.98
2023-02-13T22:20:58.059Z,22.13
2023-02-13T22:24:00.254Z,24.33
2023-02-13T22:27:03.059Z,21.30
2023-02-13T22:30:06.786Z,21.33
2023-02-13T22:33:09.011Z,23.27
2023-02-13T22:36:10.585Z,19.67
2023-02-13T22:39:12.742Z,20.25
2023-02-13T22:42:14.437Z,17.65
2023-02-13T22:45:16.205Z,22.02
2023-02-13T22:48:17.669Z,19.60
2023-02-13T22:51:22.556Z,20.52
2023-02-13T22:54:23.986Z,18.75
2023-02-13T22:57:25.631Z,18.30
2023-02-13T23:00:27.109Z,22.20
2023-02-13T23:03:32.506Z,18.90
2023-02-13T23:06:34.029Z,17.00
2023-02-13T23:09:35.485Z,19.45
2023-02-13T23:12:37.094Z,19.00
2023-02-13T23:15:38.627Z,17.40
2023-02-13T23:18:40.432Z,15.93
2023-02-13T23:21:41.919Z,16.40
2023-02-13T23:24:43.360Z,18.27
2023-02-13T23:27:44.868Z,18.20
2023-02-13T23:30:46.423Z,21.50
2023-02-13T23:33:47.941Z,17.38
2023-02-13T23:36:49.566Z,15.40
2023-02-13T23:39:51.064Z,17.77
2023-02-13T23:42:52.647Z,17.13
2023-02-13T23:45:54.138Z,15.95
2023-02-13T23:48:55.620Z,15.63
2023-02-13T23:51:57.084Z,17.52
2023-02-13T23:54:58.615Z,15.93
2023-02-13T23:58:00.754Z,13.77
